Time;durP1;ratioP1;P1;durP2;ratioP2;P2;SDS_P1;SDS_P2;PMS_P1;PMS_P2;Temp;Humidity;BMP_temperature;BMP_pressure;BME280_temperature;BME280_humidity;BME280_pressure;Samples;Min_cycle;Max_cycle;Signal;HPM_P1;HPM_P2
2021/12/04 00:00:00;;;;;;;;;;;7.00;84.10;;;;;;5061776;28;20425;-61
2021/12/04 00:02:26;;;;;;;;;;;7.00;84.30;;;;;;5062403;28;19908;-61
2021/12/04 00:04:53;;;;;;;;;;;7.00;84.50;;;;;;5055757;28;20346;-61
2021/12/04 00:07:18;;;;;;;;;;;7.00;84.60;;;;;;5014587;28;19939;-61
2021/12/04 00:09:49;;;;;;;;;;;7.00;84.70;;;;;;5060521;28;20367;-61
2021/12/04 00:12:15;;;;;;;;;;;7.00;85.00;;;;;;5057484;28;21293;-61
2021/12/04 00:14:41;;;;;;;;;;;7.00;85.00;;;;;;5042327;28;19908;-61
2021/12/04 00:17:07;;;;;;;;;;;6.90;85.00;;;;;;5059611;28;20360;-61
2021/12/04 00:19:32;;;;;;;;;;;6.90;85.10;;;;;;5058927;28;19920;-61
2021/12/04 00:21:57;;;;;;;;;;;6.90;85.10;;;;;;5043116;28;20356;-61
2021/12/04 00:24:23;;;;;;;;;;;6.90;85.10;;;;;;5032585;28;19923;-61
2021/12/04 00:26:48;;;;;;;;;;;6.90;85.30;;;;;;5042931;28;19912;-61
2021/12/04 00:29:14;;;;;;;;;;;6.90;85.40;;;;;;5058095;28;20417;-61
2021/12/04 00:31:45;;;;;;;;;;;6.80;85.40;;;;;;5040276;28;19927;-61
2021/12/04 00:34:11;;;;;;;;;;;6.80;85.50;;;;;;5044769;28;19948;-61
2021/12/04 00:50:08;;;;;;;;;;;6.80;85.90;;;;;;5054339;28;19946;-61
2021/12/04 00:52:34;;;;;;;;;;;6.80;86.10;;;;;;5038784;28;20356;-61
2021/12/04 00:54:59;;;;;;;;;;;6.70;86.10;;;;;;5039536;28;20465;-64
2021/12/04 00:57:25;;;;;;;;;;;6.80;86.10;;;;;;5056118;28;19916;-61
2021/12/04 00:59:50;;;;;;;;;;;6.70;86.10;;;;;;5043792;28;20217;-61
2021/12/04 01:02:19;;;;;;;;;;;6.80;86.20;;;;;;5043896;28;19916;-62
2021/12/04 01:04:44;;;;;;;;;;;6.70;86.20;;;;;;5044403;28;20537;-61
2021/12/04 01:07:10;;;;;;;;;;;6.70;86.30;;;;;;5059089;28;20211;-62
2021/12/04 01:09:35;;;;;;;;;;;6.70;86.40;;;;;;5061408;28;19905;-61
2021/12/04 01:12:01;;;;;;;;;;;6.70;86.40;;;;;;5061558;28;19904;-61
2021/12/04 01:14:26;;;;;;;;;;;6.70;86.50;;;;;;5060900;28;19961;-62
2021/12/04 01:16:52;;;;;;;;;;;6.70;86.50;;;;;;5061291;28;19991;-62
2021/12/04 01:19:19;;;;;;;;;;;6.60;86.50;;;;;;5042471;28;20265;-62
2021/12/04 01:21:45;;;;;;;;;;;6.70;86.60;;;;;;5060308;28;19996;-61
2021/12/04 01:24:10;;;;;;;;;;;6.70;86.60;;;;;;5056247;28;20264;-63
2021/12/04 01:26:35;;;;;;;;;;;6.70;86.70;;;;;;5058119;28;20368;-61
2021/12/04 01:29:01;;;;;;;;;;;6.60;86.70;;;;;;5046127;28;19959;-61
2021/12/04 01:31:26;;;;;;;;;;;6.60;86.70;;;;;;5046239;28;19905;-62
2021/12/04 01:33:52;;;;;;;;;;;6.60;86.80;;;;;;5055918;28;19939;-62
2021/12/04 01:36:17;;;;;;;;;;;6.60;86.80;;;;;;5018063;28;19986;-62
2021/12/04 01:38:43;;;;;;;;;;;6.60;86.90;;;;;;5038120;28;20004;-61
2021/12/04 01:41:08;;;;;;;;;;;6.60;86.90;;;;;;5061812;28;20287;-61
2021/12/04 01:43:34;;;;;;;;;;;6.60;87.00;;;;;;5021340;28;20474;-62
2021/12/04 01:45:59;;;;;;;;;;;6.60;87.00;;;;;;5060625;28;19912;-62
2021/12/04 01:48:25;;;;;;;;;;;6.60;87.00;;;;;;5040205;28;19962;-62
2021/12/04 01:50:52;;;;;;;;;;;6.50;87.00;;;;;;5058035;28;19916;-62
2021/12/04 01:53:17;;;;;;;;;;;6.50;87.00;;;;;;5034946;28;19932;-62
2021/12/04 01:55:43;;;;;;;;;;;6.60;87.20;;;;;;5061143;28;19917;-62
2021/12/04 01:58:08;;;;;;;;;;;6.50;87.20;;;;;;5042787;28;20367;-62
2021/12/04 02:00:36;;;;;;;;;;;6.50;87.20;;;;;;5059535;28;19928;-62
2021/12/04 02:03:03;;;;;;;;;;;6.50;87.20;;;;;;5039227;28;19967;-61
2021/12/04 02:05:29;;;;;;;;;;;6.50;87.20;;;;;;5057563;28;20021;-62
2021/12/04 02:07:55;;;;;;;;;;;6.50;87.20;;;;;;5058451;28;20423;-62
2021/12/04 02:10:20;;;;;;;;;;;6.50;87.30;;;;;;5059075;28;19923;-62
2021/12/04 02:12:47;;;;;;;;;;;6.50;87.30;;;;;;5057755;28;19932;-63
2021/12/04 02:15:13;;;;;;;;;;;6.50;87.40;;;;;;5038349;28;19909;-62
2021/12/04 02:17:38;;;;;;;;;;;6.50;87.50;;;;;;5044177;28;21303;-62
2021/12/04 02:20:10;;;;;;;;;;;6.50;87.40;;;;;;5060534;28;19915;-62
2021/12/04 02:22:36;;;;;;;;;;;6.50;87.50;;;;;;5058302;28;19916;-63
2021/12/04 02:25:01;;;;;;;;;;;6.40;87.50;;;;;;5041615;28;20234;-62
2021/12/04 02:27:27;;;;;;;;;;;6.40;87.50;;;;;;5058638;28;20027;-63
2021/12/04 02:29:52;;;;;;;;;;;6.50;87.70;;;;;;5056149;28;19925;-62
2021/12/04 02:32:20;;;;;;;;;;;6.40;87.70;;;;;;5040854;28;19924;-63
2021/12/04 02:34:46;;;;;;;;;;;6.40;87.70;;;;;;5058192;28;19917;-64
2021/12/04 02:37:11;;;;;;;;;;;6.40;87.80;;;;;;5057815;28;20276;-62
2021/12/04 02:39:38;;;;;;;;;;;6.40;87.80;;;;;;5058232;28;20565;-62
2021/12/04 02:42:04;;;;;;;;;;;6.30;87.80;;;;;;5039082;28;19975;-61
2021/12/04 02:44:31;;;;;;;;;;;6.40;87.80;;;;;;5057492;28;20323;-61
2021/12/04 02:46:56;;;;;;;;;;;6.40;87.90;;;;;;5057955;28;19975;-62
2021/12/04 02:49:22;;;;;;;;;;;6.30;87.90;;;;;;5057978;28;19944;-62
2021/12/04 02:51:47;;;;;;;;;;;6.30;88.00;;;;;;5037920;28;19909;-63
2021/12/04 02:54:13;;;;;;;;;;;6.30;88.10;;;;;;5057308;28;20339;-62
2021/12/04 02:56:41;;;;;;;;;;;6.30;88.10;;;;;;5057497;28;19915;-61
2021/12/04 02:59:07;;;;;;;;;;;6.30;88.10;;;;;;5059024;28;19936;-61
2021/12/04 03:01:32;;;;;;;;;;;6.30;88.10;;;;;;5059938;28;19940;-61
2021/12/04 03:04:07;;;;;;;;;;;6.30;88.10;;;;;;5040033;28;20364;-61
2021/12/04 03:06:44;;;;;;;;;;;6.30;88.00;;;;;;5039092;28;19931;-63
2021/12/04 03:09:10;;;;;;;;;;;6.30;88.10;;;;;;5040651;28;20771;-61
2021/12/04 03:11:35;;;;;;;;;;;6.30;88.10;;;;;;5041334;28;19909;-62
2021/12/04 03:14:01;;;;;;;;;;;6.30;88.20;;;;;;5042395;28;19904;-64
2021/12/04 03:16:27;;;;;;;;;;;6.30;88.20;;;;;;5056724;28;19912;-62
2021/12/04 03:18:52;;;;;;;;;;;6.30;88.30;;;;;;5040881;28;19904;-61
2021/12/04 03:21:18;;;;;;;;;;;6.30;88.40;;;;;;5055506;28;19921;-63
2021/12/04 03:23:59;;;;;;;;;;;6.30;88.40;;;;;;5041551;28;19916;-60
2021/12/04 03:26:25;;;;;;;;;;;6.30;88.40;;;;;;5055496;28;20375;-62
2021/12/04 03:28:51;;;;;;;;;;;6.30;88.30;;;;;;5040626;28;19908;-63
2021/12/04 03:42:02;;;;;;;;;;;6.30;88.50;;;;;;5056597;28;20007;-60
2021/12/04 03:44:27;;;;;;;;;;;6.30;88.60;;;;;;5047715;28;20038;-63
2021/12/04 03:46:53;;;;;;;;;;;6.30;88.60;;;;;;5041361;28;19912;-61
2021/12/04 03:49:18;;;;;;;;;;;6.30;88.70;;;;;;5042078;28;20248;-63
2021/12/04 03:51:44;;;;;;;;;;;6.30;88.70;;;;;;5043756;28;19908;-63
2021/12/04 03:54:09;;;;;;;;;;;6.30;88.70;;;;;;5058410;28;19909;-61
2021/12/04 03:56:36;;;;;;;;;;;6.20;88.70;;;;;;5058577;28;20146;-63
2021/12/04 03:59:02;;;;;;;;;;;6.30;88.80;;;;;;5057558;28;20002;-62
2021/12/04 04:01:28;;;;;;;;;;;6.30;88.80;;;;;;5041041;28;19944;-63
2021/12/04 04:03:53;;;;;;;;;;;6.20;88.70;;;;;;5041134;28;19931;-62
2021/12/04 04:06:19;;;;;;;;;;;6.30;88.80;;;;;;5042834;28;20335;-64
2021/12/04 04:08:44;;;;;;;;;;;6.30;88.90;;;;;;5039969;28;19916;-63
2021/12/04 04:11:10;;;;;;;;;;;6.30;88.90;;;;;;5037408;28;19917;-61
2021/12/04 04:13:40;;;;;;;;;;;6.30;88.90;;;;;;5057502;28;19909;-61
2021/12/04 04:16:05;;;;;;;;;;;6.20;88.90;;;;;;5041119;28;20129;-60
2021/12/04 04:18:32;;;;;;;;;;;6.30;89.00;;;;;;5041584;28;19999;-64
2021/12/04 04:20:58;;;;;;;;;;;6.20;88.90;;;;;;5043713;28;19908;-61
2021/12/04 04:23:23;;;;;;;;;;;6.20;89.20;;;;;;5058232;28;20253;-61
2021/12/04 04:25:49;;;;;;;;;;;6.20;89.00;;;;;;5056845;28;19928;-60
2021/12/04 04:28:14;;;;;;;;;;;6.20;89.00;;;;;;5040915;28;19931;-64
2021/12/04 04:30:40;;;;;;;;;;;6.20;89.00;;;;;;5052494;28;20348;-62
2021/12/04 04:33:06;;;;;;;;;;;6.20;89.00;;;;;;5057135;28;20824;-64
2021/12/04 04:35:33;;;;;;;;;;;6.20;89.10;;;;;;5057150;28;20307;-63
2021/12/04 04:57:32;;;;;;;;;;;6.20;89.10;;;;;;5056783;28;19915;-63
2021/12/04 05:00:09;;;;;;;;;;;6.20;89.30;;;;;;5055501;28;20355;-62
2021/12/04 05:10:53;;;;;;;;;;;6.20;89.40;;;;;;5042015;28;19923;-63
2021/12/04 05:13:21;;;;;;;;;;;6.20;89.50;;;;;;5054633;28;19916;-63
2021/12/04 05:18:23;;;;;;;;;;;6.20;89.70;;;;;;5041844;28;19988;-61
2021/12/04 05:21:11;;;;;;;;;;;6.20;89.70;;;;;;5052459;28;20007;-60
2021/12/04 05:23:35;;;;;;;;;;;6.20;89.80;;;;;;5054802;28;19909;-61
2021/12/04 05:26:02;;;;;;;;;;;6.20;89.90;;;;;;5041992;28;19952;-62
2021/12/04 05:28:27;;;;;;;;;;;6.20;90.20;;;;;;5039791;28;19928;-62
2021/12/04 05:30:53;;;;;;;;;;;6.20;90.00;;;;;;5057564;28;19905;-60
2021/12/04 05:33:18;;;;;;;;;;;6.30;90.00;;;;;;5057038;28;19913;-64
2021/12/04 05:35:48;;;;;;;;;;;6.20;90.00;;;;;;5040554;28;19909;-62
2021/12/04 05:38:13;;;;;;;;;;;6.20;90.10;;;;;;5057913;28;19909;-60
2021/12/04 05:40:39;;;;;;;;;;;6.20;90.00;;;;;;5041067;28;19931;-63
2021/12/04 05:43:04;;;;;;;;;;;6.30;90.10;;;;;;5057924;28;19913;-63
2021/12/04 05:45:31;;;;;;;;;;;6.20;90.10;;;;;;5058400;28;19909;-63
2021/12/04 05:53:30;;;;;;;;;;;6.20;90.20;;;;;;5046395;28;20031;-64
2021/12/04 05:55:56;;;;;;;;;;;6.20;90.30;;;;;;5044935;28;19924;-63
2021/12/04 05:58:31;;;;;;;;;;;6.20;90.20;;;;;;5061054;28;19909;-64
2021/12/04 06:00:57;;;;;;;;;;;6.30;90.30;;;;;;5045153;28;20314;-62
2021/12/04 06:03:23;;;;;;;;;;;6.30;90.30;;;;;;5046425;28;19912;-60
2021/12/04 06:05:48;;;;;;;;;;;6.30;90.40;;;;;;5064049;28;19990;-62
2021/12/04 06:08:14;;;;;;;;;;;6.20;90.30;;;;;;5046640;28;20378;-63
2021/12/04 06:10:39;;;;;;;;;;;6.30;90.30;;;;;;5047063;28;19912;-64
2021/12/04 06:13:05;;;;;;;;;;;6.30;90.40;;;;;;5063135;28;20271;-63
2021/12/04 06:15:30;;;;;;;;;;;6.30;90.30;;;;;;5063918;28;19956;-62
2021/12/04 06:17:56;;;;;;;;;;;6.30;90.40;;;;;;5062902;28;20419;-60
2021/12/04 06:23:06;;;;;;;;;;;6.30;90.40;;;;;;5061402;28;19927;-61
2021/12/04 06:25:31;;;;;;;;;;;6.20;90.40;;;;;;5046716;28;19909;-62
2021/12/04 06:27:57;;;;;;;;;;;6.30;90.50;;;;;;5047544;28;19904;-61
2021/12/04 06:30:22;;;;;;;;;;;6.20;90.50;;;;;;5047110;28;19914;-61
2021/12/04 06:32:49;;;;;;;;;;;6.20;90.60;;;;;;5061071;28;20245;-62
2021/12/04 06:35:15;;;;;;;;;;;6.30;90.70;;;;;;5061686;28;19966;-61
2021/12/04 06:37:41;;;;;;;;;;;6.30;90.70;;;;;;5062342;28;19904;-61
2021/12/04 06:40:06;;;;;;;;;;;6.30;90.70;;;;;;5051179;28;19904;-60
2021/12/04 06:42:32;;;;;;;;;;;6.30;90.80;;;;;;5047646;28;19916;-61
2021/12/04 06:44:57;;;;;;;;;;;6.30;90.90;;;;;;5063565;28;19905;-60
2021/12/04 06:47:23;;;;;;;;;;;6.30;90.80;;;;;;5046219;28;19912;-61
2021/12/04 06:49:50;;;;;;;;;;;6.30;90.80;;;;;;5060861;28;20512;-60
2021/12/04 06:52:20;;;;;;;;;;;6.30;90.80;;;;;;5043954;28;20524;-60
2021/12/04 06:54:55;;;;;;;;;;;6.10;90.70;;;;;;5062638;28;19983;-60
2021/12/04 06:57:21;;;;;;;;;;;6.30;90.70;;;;;;5061037;28;19904;-60
2021/12/04 06:59:48;;;;;;;;;;;6.30;90.70;;;;;;5063139;28;19923;-61
2021/12/04 07:02:14;;;;;;;;;;;6.30;90.80;;;;;;5061409;28;20291;-60
2021/12/04 07:04:39;;;;;;;;;;;6.30;90.80;;;;;;5052960;28;19920;-60
2021/12/04 07:07:05;;;;;;;;;;;6.30;90.80;;;;;;5046287;28;19919;-61
2021/12/04 07:09:31;;;;;;;;;;;6.30;90.80;;;;;;5046617;28;20397;-61
2021/12/04 07:11:57;;;;;;;;;;;6.30;90.80;;;;;;5059067;28;19935;-60
2021/12/04 07:14:23;;;;;;;;;;;6.30;90.90;;;;;;5045248;28;20144;-60
2021/12/04 07:16:48;;;;;;;;;;;6.30;91.00;;;;;;5044390;28;20386;-60
2021/12/04 07:19:15;;;;;;;;;;;6.30;91.00;;;;;;5046762;28;20414;-60
2021/12/04 07:21:40;;;;;;;;;;;6.30;91.00;;;;;;5045606;28;19966;-61
2021/12/04 07:24:06;;;;;;;;;;;6.30;91.00;;;;;;5060308;28;19908;-60
2021/12/04 07:26:31;;;;;;;;;;;6.30;91.10;;;;;;5060103;28;19909;-60
2021/12/04 07:28:57;;;;;;;;;;;6.30;91.10;;;;;;5046118;28;20003;-60
2021/12/04 07:31:22;;;;;;;;;;;6.30;91.10;;;;;;5050341;28;19912;-60
2021/12/04 07:33:50;;;;;;;;;;;6.30;91.10;;;;;;5046545;28;19927;-60
2021/12/04 07:36:15;;;;;;;;;;;6.30;91.00;;;;;;5060984;28;19912;-60
2021/12/04 07:38:41;;;;;;;;;;;6.30;91.00;;;;;;5044032;28;19911;-60
2021/12/04 07:41:08;;;;;;;;;;;6.30;91.00;;;;;;5043935;28;19908;-60
2021/12/04 07:43:33;;;;;;;;;;;6.30;91.00;;;;;;5028211;28;20406;-61
2021/12/04 07:45:59;;;;;;;;;;;6.30;91.10;;;;;;5051438;28;19909;-61
2021/12/04 07:48:24;;;;;;;;;;;6.30;91.10;;;;;;5061494;28;19970;-61
2021/12/04 07:50:50;;;;;;;;;;;6.30;91.20;;;;;;5043568;28;19912;-61
2021/12/04 07:53:15;;;;;;;;;;;6.30;91.10;;;;;;5044126;28;19909;-61
2021/12/04 07:55:41;;;;;;;;;;;6.30;91.00;;;;;;5049681;28;19912;-61
2021/12/04 07:58:06;;;;;;;;;;;6.40;91.00;;;;;;5037274;28;20022;-61
2021/12/04 08:00:32;;;;;;;;;;;6.40;91.10;;;;;;5059638;28;20434;-61
2021/12/04 08:02:57;;;;;;;;;;;6.40;91.20;;;;;;5025079;28;19904;-61
2021/12/04 08:05:23;;;;;;;;;;;6.40;91.10;;;;;;5036377;28;20043;-61
2021/12/04 08:07:49;;;;;;;;;;;6.40;91.10;;;;;;5053257;28;19962;-61
2021/12/04 08:10:15;;;;;;;;;;;6.40;91.20;;;;;;5051800;28;19916;-61
2021/12/04 08:12:41;;;;;;;;;;;6.40;91.30;;;;;;5023300;28;19908;-61
2021/12/04 08:15:07;;;;;;;;;;;6.40;91.30;;;;;;5055709;28;19962;-61
2021/12/04 08:17:32;;;;;;;;;;;6.40;91.30;;;;;;5040022;28;19948;-61
2021/12/04 08:19:58;;;;;;;;;;;6.40;91.40;;;;;;5054797;28;20254;-61
2021/12/04 08:22:23;;;;;;;;;;;6.40;91.50;;;;;;5055237;28;19936;-61
2021/12/04 08:24:49;;;;;;;;;;;6.40;91.50;;;;;;5038673;28;19916;-61
2021/12/04 08:27:15;;;;;;;;;;;6.30;91.60;;;;;;5020731;28;19987;-62
2021/12/04 08:29:40;;;;;;;;;;;6.40;91.80;;;;;;5056420;28;19995;-61
2021/12/04 08:32:07;;;;;;;;;;;6.40;92.00;;;;;;5051843;28;19912;-62
2021/12/04 08:34:33;;;;;;;;;;;6.40;92.10;;;;;;5052132;28;19917;-61
2021/12/04 08:36:58;;;;;;;;;;;6.40;92.10;;;;;;5053332;28;20383;-61
2021/12/04 08:39:23;;;;;;;;;;;6.40;92.00;;;;;;5055753;28;20011;-62
2021/12/04 08:41:49;;;;;;;;;;;6.50;92.20;;;;;;5039047;28;20016;-62
2021/12/04 08:44:15;;;;;;;;;;;6.40;92.20;;;;;;5051049;28;19916;-62
2021/12/04 08:46:40;;;;;;;;;;;6.50;92.20;;;;;;5045827;28;19917;-62
2021/12/04 08:49:06;;;;;;;;;;;6.50;92.40;;;;;;5048693;28;19962;-62
2021/12/04 08:51:32;;;;;;;;;;;6.50;92.40;;;;;;5038251;28;19913;-61
2021/12/04 08:53:58;;;;;;;;;;;6.50;92.40;;;;;;5032176;28;19917;-61
2021/12/04 08:56:23;;;;;;;;;;;6.50;92.60;;;;;;5033994;28;19928;-61
2021/12/04 08:58:49;;;;;;;;;;;6.50;92.70;;;;;;5037912;28;19917;-62
2021/12/04 09:01:22;;;;;;;;;;;6.60;92.80;;;;;;5032674;28;20429;-62
2021/12/04 09:03:47;;;;;;;;;;;6.60;92.70;;;;;;5035471;28;19928;-61
2021/12/04 09:06:13;;;;;;;;;;;6.60;92.70;;;;;;5048343;28;19929;-61
2021/12/04 09:08:38;;;;;;;;;;;6.60;92.70;;;;;;5050792;28;19966;-62
2021/12/04 09:11:08;;;;;;;;;;;6.60;92.70;;;;;;5050886;28;19944;-62
2021/12/04 09:13:34;;;;;;;;;;;6.70;92.80;;;;;;5037430;28;19916;-62
2021/12/04 09:15:59;;;;;;;;;;;6.60;93.00;;;;;;5033166;28;20319;-62
2021/12/04 09:18:25;;;;;;;;;;;6.70;93.20;;;;;;5048237;28;19923;-62
2021/12/04 09:20:51;;;;;;;;;;;6.70;93.30;;;;;;5051230;28;19952;-61
2021/12/04 09:23:18;;;;;;;;;;;6.70;93.50;;;;;;5039502;28;20015;-62
2021/12/04 09:25:48;;;;;;;;;;;6.70;93.60;;;;;;5033088;28;19924;-61
2021/12/04 09:28:27;;;;;;;;;;;6.70;93.60;;;;;;5050830;28;20272;-63
2021/12/04 10:03:48;;;;;;;;;;;7.10;94.80;;;;;;5050279;28;19999;-62
2021/12/04 10:15:06;;;;;;;;;;;7.20;95.00;;;;;;5023113;28;19916;-62
2021/12/04 10:33:23;;;;;;;;;;;7.50;95.50;;;;;;5039259;28;19974;-62
2021/12/04 10:35:49;;;;;;;;;;;7.50;95.60;;;;;;5037857;28;20003;-62
2021/12/04 10:38:23;;;;;;;;;;;7.50;95.70;;;;;;5020395;28;19966;-62
2021/12/04 10:40:49;;;;;;;;;;;7.50;95.70;;;;;;5052232;28;20022;-61
2021/12/04 10:43:21;;;;;;;;;;;7.60;96.10;;;;;;5040506;28;19920;-62
2021/12/04 10:45:49;;;;;;;;;;;7.80;95.80;;;;;;5054006;28;19944;-62
2021/12/04 10:48:19;;;;;;;;;;;7.60;95.80;;;;;;5043436;28;19924;-61
2021/12/04 10:53:14;;;;;;;;;;;7.70;96.20;;;;;;5053132;28;20477;-61
2021/12/04 11:04:14;;;;;;;;;;;7.80;96.30;;;;;;5057784;28;19924;-62
2021/12/04 11:21:07;;;;;;;;;;;8.00;96.60;;;;;;5059823;28;20034;-64
2021/12/04 11:45:12;;;;;;;;;;;8.30;97.00;;;;;;5058947;28;19916;-62
2021/12/04 11:47:38;;;;;;;;;;;8.30;97.00;;;;;;5046172;28;19908;-62
2021/12/04 11:50:13;;;;;;;;;;;8.30;97.10;;;;;;5043084;28;19971;-61
2021/12/04 11:52:43;;;;;;;;;;;8.40;97.40;;;;;;5059496;28;19907;-62
2021/12/04 11:55:09;;;;;;;;;;;8.30;97.10;;;;;;5060023;28;19927;-62
2021/12/04 11:57:35;;;;;;;;;;;8.30;97.10;;;;;;5058827;28;19908;-61
2021/12/04 12:00:28;;;;;;;;;;;8.40;97.20;;;;;;5060642;28;19923;-61
2021/12/04 12:03:07;;;;;;;;;;;8.40;97.10;;;;;;5039136;28;19927;-62
2021/12/04 12:05:39;;;;;;;;;;;8.40;97.20;;;;;;5061308;28;19974;-62
2021/12/04 12:08:04;;;;;;;;;;;8.40;97.30;;;;;;5042921;28;19926;-62
2021/12/04 12:10:30;;;;;;;;;;;8.50;97.40;;;;;;5044381;28;20382;-63
2021/12/04 12:13:03;;;;;;;;;;;8.50;97.40;;;;;;5056277;28;19967;-61
2021/12/04 12:15:32;;;;;;;;;;;8.50;97.50;;;;;;5043407;28;19969;-61
2021/12/04 12:18:08;;;;;;;;;;;8.50;97.60;;;;;;5043286;28;19991;-62
2021/12/04 12:20:41;;;;;;;;;;;8.60;97.80;;;;;;5050194;28;19912;-62
2021/12/04 12:23:08;;;;;;;;;;;8.60;97.80;;;;;;5059669;28;19908;-62
2021/12/04 12:36:02;;;;;;;;;;;8.80;97.70;;;;;;5057339;28;19989;-61
2021/12/04 12:37:19;;;;;;;;;;;8.80;97.70;;;;;;5034981;28;19916;-61
2021/12/04 12:40:04;;;;;;;;;;;8.80;97.90;;;;;;5053322;28;20446;-61
2021/12/04 12:42:35;;;;;;;;;;;8.80;97.90;;;;;;5040891;28;19998;-61
2021/12/04 12:45:14;;;;;;;;;;;8.90;97.90;;;;;;5043389;28;19963;-61
2021/12/04 12:47:53;;;;;;;;;;;8.90;97.80;;;;;;5058277;28;19909;-62
2021/12/04 12:50:26;;;;;;;;;;;9.00;97.80;;;;;;5040979;28;19916;-61
2021/12/04 12:52:58;;;;;;;;;;;9.00;97.90;;;;;;5042507;28;19919;-61
2021/12/04 12:55:24;;;;;;;;;;;9.00;97.90;;;;;;5044999;28;19947;-61
2021/12/04 12:57:49;;;;;;;;;;;9.00;98.00;;;;;;5060890;28;19952;-61
2021/12/04 13:14:18;;;;;;;;;;;9.20;98.10;;;;;;5059560;28;19961;-61
2021/12/04 13:16:46;;;;;;;;;;;9.20;98.20;;;;;;5057535;28;19908;-61
2021/12/04 13:19:13;;;;;;;;;;;9.20;98.30;;;;;;5057928;28;19908;-62
2021/12/04 13:21:39;;;;;;;;;;;9.20;98.10;;;;;;5049396;28;19978;-61
2021/12/04 13:24:05;;;;;;;;;;;9.30;98.50;;;;;;5026568;28;20587;-61
2021/12/04 13:26:32;;;;;;;;;;;9.30;98.30;;;;;;5027105;28;19908;-61
2021/12/04 13:28:59;;;;;;;;;;;9.30;98.30;;;;;;5042527;28;19908;-62
2021/12/04 13:31:25;;;;;;;;;;;9.30;98.30;;;;;;5061591;28;19915;-61
2021/12/04 13:33:50;;;;;;;;;;;9.30;98.30;;;;;;5062973;28;19916;-61
2021/12/04 13:36:17;;;;;;;;;;;9.30;98.40;;;;;;5043919;28;20375;-61
2021/12/04 13:38:42;;;;;;;;;;;9.40;98.50;;;;;;5042827;28;19961;-61
2021/12/04 13:41:08;;;;;;;;;;;9.40;98.40;;;;;;5049224;28;19924;-61
2021/12/04 13:43:34;;;;;;;;;;;9.40;98.40;;;;;;5040321;28;19927;-61
2021/12/04 13:46:00;;;;;;;;;;;9.40;98.30;;;;;;5038485;28;20407;-61
2021/12/04 13:48:26;;;;;;;;;;;9.40;98.10;;;;;;5040479;28;19909;-61
2021/12/04 13:50:52;;;;;;;;;;;9.40;98.00;;;;;;5053875;28;20285;-61
2021/12/04 13:53:22;;;;;;;;;;;9.50;98.00;;;;;;5040422;28;19916;-61
2021/12/04 13:55:49;;;;;;;;;;;9.40;97.90;;;;;;5042953;28;19925;-60
2021/12/04 13:58:14;;;;;;;;;;;9.50;97.90;;;;;;5063326;28;19912;-61
2021/12/04 14:00:40;;;;;;;;;;;9.40;97.90;;;;;;5047571;28;19933;-61
2021/12/04 14:03:05;;;;;;;;;;;9.50;97.90;;;;;;5045302;28;19969;-61
2021/12/04 14:05:31;;;;;;;;;;;9.50;97.80;;;;;;5046585;28;19920;-61
2021/12/04 14:07:57;;;;;;;;;;;9.50;97.80;;;;;;5041497;28;20191;-60
2021/12/04 14:10:23;;;;;;;;;;;9.50;97.80;;;;;;5056003;28;19908;-61
2021/12/04 14:12:49;;;;;;;;;;;9.50;98.00;;;;;;5045161;28;20018;-61
2021/12/04 14:15:16;;;;;;;;;;;9.60;98.10;;;;;;5063499;28;19908;-61
2021/12/04 14:17:41;;;;;;;;;;;9.60;98.00;;;;;;5062690;28;19986;-61
2021/12/04 14:20:07;;;;;;;;;;;9.60;98.10;;;;;;5045901;28;21073;-60
2021/12/04 14:22:33;;;;;;;;;;;9.60;98.20;;;;;;5045416;28;19916;-62
2021/12/04 14:25:01;;;;;;;;;;;9.60;98.30;;;;;;5061043;28;19924;-61
2021/12/04 14:27:28;;;;;;;;;;;9.60;98.10;;;;;;5044938;28;19927;-60
2021/12/04 14:29:55;;;;;;;;;;;9.80;98.20;;;;;;5046058;28;19916;-61
2021/12/04 14:32:21;;;;;;;;;;;9.70;98.20;;;;;;5045164;28;19916;-61
2021/12/04 14:34:47;;;;;;;;;;;9.70;98.10;;;;;;5060115;28;19919;-61
2021/12/04 14:37:13;;;;;;;;;;;9.70;98.10;;;;;;5060942;28;20484;-60
2021/12/04 14:39:39;;;;;;;;;;;9.70;98.10;;;;;;5043639;28;19984;-60
2021/12/04 14:42:09;;;;;;;;;;;9.80;98.20;;;;;;5044703;28;20406;-61
2021/12/04 14:44:35;;;;;;;;;;;9.80;98.30;;;;;;5043841;28;19962;-61
2021/12/04 14:47:00;;;;;;;;;;;9.80;98.60;;;;;;5045632;28;19930;-61
2021/12/04 14:49:26;;;;;;;;;;;9.80;98.30;;;;;;5044013;28;19908;-61
2021/12/04 14:51:51;;;;;;;;;;;9.80;98.20;;;;;;5049520;28;19920;-60
2021/12/04 14:54:24;;;;;;;;;;;9.80;98.20;;;;;;5060123;28;19908;-61
2021/12/04 14:56:50;;;;;;;;;;;9.90;98.30;;;;;;5027797;28;19920;-61
2021/12/04 14:59:15;;;;;;;;;;;9.90;98.30;;;;;;5043372;28;19930;-61
2021/12/04 15:01:41;;;;;;;;;;;9.90;98.20;;;;;;5060060;28;19916;-61
2021/12/04 15:04:06;;;;;;;;;;;9.90;98.20;;;;;;5042368;28;19920;-61
2021/12/04 15:06:33;;;;;;;;;;;9.90;98.20;;;;;;5052522;28;20295;-61
2021/12/04 15:08:59;;;;;;;;;;;9.90;98.30;;;;;;5060813;28;21200;-61
2021/12/04 15:11:29;;;;;;;;;;;9.90;98.30;;;;;;5062364;28;19931;-63
2021/12/04 15:13:56;;;;;;;;;;;9.90;98.30;;;;;;5045449;28;19923;-60
2021/12/04 15:16:36;;;;;;;;;;;9.90;98.40;;;;;;5042696;28;19932;-61
2021/12/04 15:19:39;;;;;;;;;;;9.90;98.40;;;;;;5059229;28;19919;-62
2021/12/04 15:22:08;;;;;;;;;;;9.90;98.50;;;;;;5044722;28;19920;-61
2021/12/04 15:24:38;;;;;;;;;;;9.90;98.40;;;;;;5040019;28;20570;-60
2021/12/04 15:27:16;;;;;;;;;;;9.90;98.50;;;;;;5061010;28;19927;-61
2021/12/04 15:29:43;;;;;;;;;;;10.00;98.60;;;;;;5061929;28;20363;-61
2021/12/04 15:32:10;;;;;;;;;;;10.00;98.40;;;;;;5043199;28;20375;-61
2021/12/04 15:34:40;;;;;;;;;;;10.00;98.40;;;;;;5062133;28;19970;-61
2021/12/04 15:37:06;;;;;;;;;;;10.00;98.40;;;;;;5044439;28;19936;-61
2021/12/04 15:39:49;;;;;;;;;;;10.00;98.50;;;;;;5060518;28;20687;-62
2021/12/04 15:44:51;;;;;;;;;;;10.00;98.30;;;;;;5036612;28;19919;-62
2021/12/04 15:50:17;;;;;;;;;;;10.00;98.30;;;;;;5043662;28;19939;-60
2021/12/04 15:55:29;;;;;;;;;;;10.10;98.30;;;;;;5059189;28;19935;-62
2021/12/04 15:57:58;;;;;;;;;;;10.10;98.20;;;;;;5043045;28;20605;-61
2021/12/04 16:00:30;;;;;;;;;;;10.10;98.20;;;;;;5058825;28;19916;-61
2021/12/04 16:02:58;;;;;;;;;;;10.10;98.10;;;;;;5043838;28;19919;-62
2021/12/04 16:05:25;;;;;;;;;;;10.10;98.10;;;;;;5060909;28;19954;-61
2021/12/04 16:07:59;;;;;;;;;;;10.10;98.00;;;;;;5043074;28;19923;-62
2021/12/04 16:10:24;;;;;;;;;;;10.10;98.00;;;;;;5026908;28;19908;-61
2021/12/04 16:12:54;;;;;;;;;;;10.10;97.80;;;;;;5028117;28;20046;-62
2021/12/04 16:15:20;;;;;;;;;;;10.10;97.80;;;;;;5058389;28;19908;-60
2021/12/04 16:17:46;;;;;;;;;;;10.10;97.80;;;;;;5058796;28;19908;-61
2021/12/04 16:20:13;;;;;;;;;;;10.10;97.80;;;;;;5061610;28;19912;-60
2021/12/04 16:22:40;;;;;;;;;;;10.10;97.80;;;;;;5060663;28;19923;-61
2021/12/04 16:25:10;;;;;;;;;;;10.10;97.80;;;;;;5043954;28;19924;-60
2021/12/04 16:27:47;;;;;;;;;;;10.10;97.70;;;;;;5043252;28;19981;-60
2021/12/04 16:30:29;;;;;;;;;;;10.10;97.70;;;;;;5042219;28;20264;-60
2021/12/04 16:33:07;;;;;;;;;;;10.10;97.60;;;;;;5053179;28;19904;-61
2021/12/04 16:38:01;;;;;;;;;;;10.20;97.70;;;;;;5044130;28;19908;-61
2021/12/04 16:40:29;;;;;;;;;;;10.20;97.60;;;;;;5054063;28;19923;-61
2021/12/04 16:43:04;;;;;;;;;;;10.20;97.50;;;;;;5060865;28;20312;-61
2021/12/04 16:45:30;;;;;;;;;;;10.20;97.30;;;;;;5041892;28;19920;-61
2021/12/04 16:47:59;;;;;;;;;;;10.20;97.40;;;;;;5041283;28;19908;-61
2021/12/04 16:50:29;;;;;;;;;;;10.20;97.40;;;;;;5041649;28;19916;-61
2021/12/04 16:58:14;;;;;;;;;;;10.20;97.70;;;;;;5060114;28;19939;-61
2021/12/04 17:00:40;;;;;;;;;;;10.20;97.60;;;;;;5058505;28;19920;-60
2021/12/04 17:03:06;;;;;;;;;;;10.20;97.30;;;;;;5044703;28;19928;-61
2021/12/04 17:05:33;;;;;;;;;;;10.10;97.30;;;;;;5041908;28;20019;-63
2021/12/04 17:07:59;;;;;;;;;;;10.20;97.40;;;;;;5038006;28;19908;-64
2021/12/04 17:10:26;;;;;;;;;;;10.20;97.50;;;;;;5025622;28;19916;-60
2021/12/04 17:12:51;;;;;;;;;;;10.20;97.50;;;;;;5041051;28;19995;-62
2021/12/04 17:15:17;;;;;;;;;;;10.10;97.70;;;;;;5043155;28;19999;-63
2021/12/04 17:17:44;;;;;;;;;;;10.10;97.80;;;;;;5043168;28;19924;-61
2021/12/04 17:20:10;;;;;;;;;;;10.20;97.70;;;;;;5057430;28;19944;-59
2021/12/04 17:22:36;;;;;;;;;;;10.20;97.40;;;;;;5041115;28;19916;-60
2021/12/04 17:25:01;;;;;;;;;;;10.20;97.60;;;;;;5046009;28;20340;-62
2021/12/04 17:27:26;;;;;;;;;;;10.10;97.60;;;;;;5042114;28;20147;-61
2021/12/04 17:29:52;;;;;;;;;;;10.10;97.50;;;;;;5043502;28;19966;-60
2021/12/04 17:32:19;;;;;;;;;;;10.20;97.50;;;;;;5060237;28;19912;-62
2021/12/04 17:34:45;;;;;;;;;;;10.20;97.50;;;;;;5058852;28;20002;-63
2021/12/04 17:37:11;;;;;;;;;;;10.30;97.40;;;;;;5058329;28;20148;-60
2021/12/04 17:39:36;;;;;;;;;;;10.20;97.30;;;;;;5059483;28;20378;-60
2021/12/04 17:42:02;;;;;;;;;;;10.20;97.20;;;;;;5047172;28;19919;-62
2021/12/04 17:44:27;;;;;;;;;;;10.20;97.20;;;;;;5064065;28;19909;-62
2021/12/04 17:46:53;;;;;;;;;;;10.10;97.20;;;;;;5045217;28;19962;-62
2021/12/04 17:49:19;;;;;;;;;;;10.10;97.10;;;;;;5034926;28;20015;-61
2021/12/04 17:51:45;;;;;;;;;;;10.10;97.10;;;;;;5062256;28;20015;-62
2021/12/04 17:54:11;;;;;;;;;;;10.10;97.10;;;;;;5062334;28;19978;-63